Doris — 9HA2632 — position and weather

sailwx.info

Track history (hours):
 
Tides and Currents Weather Stations Pressure Air Temp Water Temp Dewpoint Dewpoint Depression Visibility Wind Speed Wind Dir Waves Ship Positions

Doris

Last reported at 2014-Dec-21 05:32 UTC. Time now 2014-Dec-21 06:56 UTC.
Position N 39°17' W 076°36'.

Length 182 m; draft 10 m.

Type: Cargo ship. MMSI: 215080000.

Date/timePositionNaut miles runAvg speedWind from/ knotsBaromVisibWave heightAir tempDewpointWater temp
2014-Dec-21 05:32N 39°17' W 076°36'0 0.0
2014-Dec-21 04:32N 39°17' W 076°36'0 0.0
2014-Dec-21 03:32N 39°17' W 076°36'0 0.0
2014-Dec-21 02:32N 39°17' W 076°36'0 0.0
2014-Dec-21 01:32N 39°17' W 076°36'0 0.0
2014-Dec-21 00:32N 39°17' W 076°36'0 0.0
2014-Dec-20 23:32N 39°17' W 076°36'0 0.0
2014-Dec-20 22:29N 39°17' W 076°36'0 0.0
2014-Dec-20 21:32N 39°17' W 076°36'0 0.0
2014-Dec-20 20:32N 39°17' W 076°36'0 0.0
2014-Dec-20 19:32N 39°17' W 076°36'0 0.0
2014-Dec-20 18:29N 39°17' W 076°36'0 0.0
2014-Dec-20 17:32N 39°17' W 076°36'0 0.0
2014-Dec-20 16:32N 39°17' W 076°36'0 0.0
2014-Dec-20 15:07N 39°17' W 076°36'0 0.0
2014-Dec-20 14:31N 39°17' W 076°36'0 0.0
2014-Dec-20 13:32N 39°17' W 076°36'0 0.0
2014-Dec-20 12:31N 39°17' W 076°36'0 0.0
2014-Dec-20 11:32N 39°17' W 076°36'0 0.0
2014-Dec-20 10:32N 39°17' W 076°36'0 0.0
2014-Dec-20 09:26N 39°17' W 076°36'0 0.0
2014-Dec-20 08:32N 39°17' W 076°36'0 0.0
2014-Dec-20 07:31N 39°17' W 076°36'0 0.0
2014-Dec-20 06:31N 39°17' W 076°36'0 0.0
2014-Dec-20 05:32N 39°17' W 076°36'0 0.0
2014-Dec-20 04:25N 39°17' W 076°36'0 0.0
2014-Dec-20 03:31N 39°17' W 076°36'0 0.0
2014-Dec-20 02:31N 39°17' W 076°36'0 0.0
2014-Dec-20 01:31N 39°17' W 076°36'0 0.0
2014-Dec-20 00:31N 39°17' W 076°36'0 0.0
2014-Dec-19 23:31N 39°17' W 076°36'0 0.0
2014-Dec-19 22:31N 39°17' W 076°36'0 0.0
2014-Dec-19 21:25N 39°17' W 076°36'0 0.0
2014-Dec-19 20:31N 39°17' W 076°36'0 0.0
2014-Dec-19 19:32N 39°17' W 076°36'0 0.0
2014-Dec-19 18:31N 39°17' W 076°36'0 0.0
2014-Dec-19 17:31N 39°17' W 076°36'0 0.0
2014-Dec-19 16:31N 39°17' W 076°36'0 0.0
2014-Dec-19 15:31N 39°17' W 076°36'0 0.0
2014-Dec-19 14:31N 39°17' W 076°36'0 0.0
2014-Dec-19 13:31N 39°17' W 076°36'0 0.0
2014-Dec-19 12:32N 39°17' W 076°36'0 0.0
2014-Dec-19 11:31N 39°17' W 076°36'0 0.0
2014-Dec-19 10:32N 39°17' W 076°36'0 0.0
2014-Dec-19 09:31N 39°17' W 076°36'0 0.0
2014-Dec-19 08:32N 39°17' W 076°36'0 0.0
2014-Dec-19 07:32N 39°17' W 076°36'0 0.0
2014-Dec-19 06:32N 39°17' W 076°36'0 0.0
2014-Dec-19 05:32N 39°17' W 076°36'0 0.0
2014-Dec-19 04:32N 39°17' W 076°36'0 0.0
2014-Dec-19 03:32N 39°17' W 076°36'0 0.0
2014-Dec-19 02:32N 39°17' W 076°36'0 0.0
2014-Dec-19 01:32N 39°17' W 076°36'0 0.0
2014-Dec-19 00:31N 39°17' W 076°36'0 0.0
2014-Dec-18 23:31N 39°17' W 076°36'0 0.0
2014-Dec-18 22:32N 39°17' W 076°36'0 0.0
2014-Dec-18 21:31N 39°17' W 076°36'0 0.0
2014-Dec-18 20:31N 39°17' W 076°36'0 0.1
2014-Dec-18 19:33N 39°17' W 076°36'2 2.1
2014-Dec-18 18:33N 39°15' W 076°34'7 7.1
2014-Dec-18 17:33N 39°11' W 076°26'1111.1
2014-Dec-18 16:33N 39°00' W 076°23'5 4.6
2014-Dec-18 15:33N 38°56' W 076°24'1 0.9
2014-Dec-18 14:32N 38°56' W 076°25'0 0.1
2014-Dec-18 13:27N 38°56' W 076°25'0 0.0
2014-Dec-18 12:33N 38°56' W 076°25'0 0.0
2014-Dec-18 11:33N 38°56' W 076°25'0 0.0
2014-Dec-18 10:33N 38°56' W 076°25'0 0.1
2014-Dec-18 09:24N 38°56' W 076°24'0 0.0
2014-Dec-18 08:30N 38°56' W 076°24'0 0.0
2014-Dec-18 07:33N 38°56' W 076°24'0 0.0
2014-Dec-18 06:33N 38°56' W 076°24'0 0.0
2014-Dec-18 05:33N 38°56' W 076°24'0 0.1
2014-Dec-18 04:21N 38°56' W 076°25'0 0.1
2014-Dec-18 03:33N 38°56' W 076°25'0 0.0
2014-Dec-18 02:30N 38°56' W 076°25'0 0.0
2014-Dec-18 01:33N 38°56' W 076°25'0 0.0
2014-Dec-18 00:33N 38°56' W 076°25'0 0.0
2014-Dec-17 23:33N 38°56' W 076°25'0 0.0
2014-Dec-17 22:33N 38°56' W 076°25'0 0.1
2014-Dec-17 21:21N 38°56' W 076°24'0 0.1
2014-Dec-17 20:33N 38°57' W 076°24'0 0.0
2014-Dec-17 19:33N 38°57' W 076°24'0 0.0
2014-Dec-17 18:33N 38°57' W 076°24'0 0.0
2014-Dec-17 17:33N 38°57' W 076°24'0 0.0
2014-Dec-17 16:33N 38°57' W 076°24'0 0.1
2014-Dec-17 15:27N 38°56' W 076°25'0 0.1
2014-Dec-17 14:33N 38°56' W 076°25'0 0.0
2014-Dec-17 13:24N 38°56' W 076°25'0 0.0
2014-Dec-17 12:33N 38°56' W 076°25'0 0.0
2014-Dec-17 11:33N 38°56' W 076°25'0 0.0
2014-Dec-17 10:24N 38°56' W 076°25'0 0.0
2014-Dec-17 09:33N 38°56' W 076°25'0 0.1
2014-Dec-17 08:30N 38°56' W 076°24'0 0.1
2014-Dec-17 07:33N 38°56' W 076°24'0 0.1
2014-Dec-17 06:33N 38°57' W 076°24'0 0.0
2014-Dec-17 05:33N 38°57' W 076°24'0 0.1
2014-Dec-17 04:33N 38°56' W 076°24'0 0.1
2014-Dec-17 03:33N 38°56' W 076°25'0 0.0
2014-Dec-17 02:33N 38°56' W 076°25'0 0.0
2014-Dec-17 01:33N 38°56' W 076°25'0 0.0
2014-Dec-17 00:33N 38°56' W 076°25'0 0.0
2014-Dec-16 23:33N 38°56' W 076°25'0 0.1
2014-Dec-16 21:33N 38°57' W 076°25'0 0.1
2014-Dec-16 20:33N 38°57' W 076°25'0 0.0
2014-Dec-16 19:18N 38°57' W 076°25'0 0.0
2014-Dec-16 18:33N 38°57' W 076°25'0 0.0
2014-Dec-16 17:33N 38°57' W 076°25'0 0.0
2014-Dec-16 16:30N 38°57' W 076°25'0 0.0
2014-Dec-16 15:33N 38°57' W 076°25'0 0.0
2014-Dec-16 14:24N 38°57' W 076°25'0 0.1
2014-Dec-16 12:33N 38°56' W 076°25'0 0.0
2014-Dec-16 11:33N 38°56' W 076°25'0 0.0
2014-Dec-16 10:33N 38°56' W 076°25'0 0.0
2014-Dec-16 09:27N 38°56' W 076°25'0 0.1
2014-Dec-16 08:33N 38°56' W 076°25'0 0.1
2014-Dec-16 07:33N 38°57' W 076°25'0 0.0
2014-Dec-16 06:33N 38°57' W 076°25'0 0.0
2014-Dec-16 05:33N 38°57' W 076°24'0 0.0
2014-Dec-16 04:06N 38°57' W 076°25'0 0.0
2014-Dec-16 03:27N 38°57' W 076°25'0 0.1
2014-Dec-16 01:09N 38°56' W 076°25'0 0.0
2014-Dec-16 00:16N 38°56' W 076°25'0 0.0
2014-Dec-15 23:33N 38°56' W 076°25'0 0.0
2014-Dec-15 22:27N 38°56' W 076°25'0 0.0
2014-Dec-15 21:21N 38°56' W 076°25'0 0.1
2014-Dec-15 20:30N 38°57' W 076°25'0 0.1
2014-Dec-15 19:27N 38°57' W 076°25'0 0.0
2014-Dec-15 18:33N 38°57' W 076°25'0 0.0
2014-Dec-15 17:33N 38°57' W 076°25'0 0.0
2014-Dec-15 16:33N 38°57' W 076°25'0 0.0
2014-Dec-15 15:33N 38°57' W 076°25'0 0.0
2014-Dec-15 14:30N 38°57' W 076°25'0 0.2
2014-Dec-15 13:33N 38°56' W 076°25'0 0.0
2014-Dec-15 12:33N 38°56' W 076°25'0 0.0
2014-Dec-15 11:33N 38°56' W 076°25'0 0.0
2014-Dec-15 10:33N 38°56' W 076°25'0 0.0
2014-Dec-15 09:33N 38°56' W 076°25'0 0.0
2014-Dec-15 08:33N 38°56' W 076°25'0 0.1
2014-Dec-15 07:33N 38°56' W 076°24'0 0.1
2014-Dec-15 06:33N 38°57' W 076°25'0 0.0
2014-Dec-15 05:33N 38°57' W 076°25'0 0.0
2014-Dec-15 04:33N 38°57' W 076°25'0 0.0
2014-Dec-15 03:33N 38°57' W 076°25'0 0.1
2014-Dec-15 01:30N 38°56' W 076°25'0 0.0
2014-Dec-15 00:33N 38°56' W 076°25'0 0.0
2014-Dec-14 23:30N 38°56' W 076°25'0 0.0
2014-Dec-14 22:33N 38°56' W 076°25'0 0.0
2014-Dec-14 21:30N 38°56' W 076°25'0 0.0
2014-Dec-14 20:33N 38°56' W 076°25'0 0.2
2014-Dec-14 19:33N 38°57' W 076°25'0 0.0
2014-Dec-14 18:33N 38°57' W 076°25'0 0.0
2014-Dec-14 17:33N 38°57' W 076°25'0 0.0
2014-Dec-14 16:33N 38°57' W 076°25'0 0.0
2014-Dec-14 15:33N 38°57' W 076°25'0 0.0
2014-Dec-14 14:33N 38°57' W 076°25'0 0.1
2014-Dec-14 13:33N 38°56' W 076°25'0 0.1
2014-Dec-14 12:33N 38°56' W 076°25'0 0.0
2014-Dec-14 11:33N 38°56' W 076°25'0 0.0
2014-Dec-14 10:33N 38°56' W 076°25'0 0.0
2014-Dec-14 09:33N 38°56' W 076°25'0 0.0
2014-Dec-14 08:24N 38°56' W 076°25'0 0.0
2014-Dec-14 07:33N 38°56' W 076°25'0 0.0
2014-Dec-14 06:27N 38°56' W 076°25'0 0.1
2014-Dec-14 05:33N 38°56' W 076°24'0 0.1
2014-Dec-14 04:33N 38°57' W 076°24'0 0.0
2014-Dec-14 03:33N 38°57' W 076°24'0 0.0
2014-Dec-14 02:33N 38°57' W 076°24'0 0.1
2014-Dec-14 01:33N 38°56' W 076°24'0 0.1
2014-Dec-14 00:33N 38°56' W 076°25'0 0.0
2014-Dec-13 23:33N 38°56' W 076°25'0 0.0
2014-Dec-13 22:24N 38°56' W 076°25'0 0.0
2014-Dec-13 21:33N 38°56' W 076°25'0 0.0
2014-Dec-13 20:33N 38°56' W 076°25'0 0.0
2014-Dec-13 19:24N 38°56' W 076°25'0 0.1
2014-Dec-13 18:21N 38°56' W 076°24'0 0.1
2014-Dec-13 17:33N 38°57' W 076°24'0 0.0
2014-Dec-13 16:33N 38°57' W 076°24'0 0.0
2014-Dec-13 15:30N 38°57' W 076°24'0 0.0
2014-Dec-13 14:33N 38°57' W 076°25'0 0.2
2014-Dec-13 13:30N 38°56' W 076°25'0 0.0
2014-Dec-13 12:33N 38°56' W 076°25'0 0.0
2014-Dec-13 11:33N 38°56' W 076°25'0 0.0
2014-Dec-13 10:33N 38°56' W 076°25'0 0.0
2014-Dec-13 09:33N 38°56' W 076°25'0 0.0
2014-Dec-13 08:33N 38°56' W 076°25'0 0.0
2014-Dec-13 07:30N 38°56' W 076°25'0 0.0
2014-Dec-13 06:33N 38°56' W 076°25'0 0.0
2014-Dec-13 05:33N 38°56' W 076°25'0 0.1
2014-Dec-13 04:33N 38°56' W 076°24'0 0.1
2014-Dec-13 03:33N 38°57' W 076°24'0 0.0
2014-Dec-13 02:33N 38°57' W 076°24'0 0.0
2014-Dec-13 01:33N 38°57' W 076°24'0 0.0
2014-Dec-13 00:33N 38°57' W 076°24'0 0.1
2014-Dec-12 23:33N 38°56' W 076°24'0 0.0
2014-Dec-12 22:30N 38°56' W 076°25'0 0.0
2014-Dec-12 21:30N 38°56' W 076°25'0 0.0
2014-Dec-12 20:21N 38°56' W 076°25'0 0.0
2014-Dec-12 19:27N 38°56' W 076°25'0 0.0
2014-Dec-12 18:33N 38°56' W 076°25'0 0.0
2014-Dec-12 17:09N 38°56' W 076°25'0 0.0
2014-Dec-12 16:30N 38°56' W 076°24'0 0.1
2014-Dec-12 15:33N 38°56' W 076°24'0 0.0
2014-Dec-12 14:33N 38°56' W 076°24'0 0.0
2014-Dec-12 13:33N 38°56' W 076°24'0 0.1
2014-Dec-12 12:33N 38°56' W 076°24'0 0.1
2014-Dec-12 11:33N 38°56' W 076°25'0 0.0
2014-Dec-12 10:33N 38°56' W 076°25'0 0.0
2014-Dec-12 09:33N 38°56' W 076°25'0 0.0
2014-Dec-12 08:21N 38°56' W 076°25'0 0.0
2014-Dec-12 07:33N 38°56' W 076°25'0 0.0
2014-Dec-12 06:33N 38°56' W 076°25'0 0.0
2014-Dec-12 05:33N 38°56' W 076°25'0 0.0
2014-Dec-12 04:33N 38°56' W 076°25'0 0.2
2014-Dec-12 03:33N 38°57' W 076°25'0 0.1
2014-Dec-12 02:33N 38°57' W 076°25'0 0.2
2014-Dec-12 01:33N 38°56' W 076°25'6 6.5
2014-Dec-12 00:33N 38°50' W 076°24'5311.7
2014-Dec-11 20:04N 37°58' W 076°12'  
Track history (hours):
 
Tides and Currents Weather Stations Pressure Air Temp Water Temp Dewpoint Dewpoint Depression Visibility Wind Speed Wind Dir Waves Ship Positions

Doris

Last reported at 2014-Dec-21 05:32 UTC. Time now 2014-Dec-21 06:56 UTC.
Position N 39°17' W 076°36'.

Length 182 m; draft 10 m.

Type: Cargo ship. MMSI: 215080000.

Date/timePositionNaut miles runAvg speedWind from/ knotsBaromVisibWave heightAir tempDewpointWater temp
2014-Dec-21 05:32N 39°17' W 076°36'0 0.0
2014-Dec-21 04:32N 39°17' W 076°36'0 0.0
2014-Dec-21 03:32N 39°17' W 076°36'0 0.0
2014-Dec-21 02:32N 39°17' W 076°36'0 0.0
2014-Dec-21 01:32N 39°17' W 076°36'0 0.0
2014-Dec-21 00:32N 39°17' W 076°36'0 0.0
2014-Dec-20 23:32N 39°17' W 076°36'0 0.0
2014-Dec-20 22:29N 39°17' W 076°36'0 0.0
2014-Dec-20 21:32N 39°17' W 076°36'0 0.0
2014-Dec-20 20:32N 39°17' W 076°36'0 0.0
2014-Dec-20 19:32N 39°17' W 076°36'0 0.0
2014-Dec-20 18:29N 39°17' W 076°36'0 0.0
2014-Dec-20 17:32N 39°17' W 076°36'0 0.0
2014-Dec-20 16:32N 39°17' W 076°36'0 0.0
2014-Dec-20 15:07N 39°17' W 076°36'0 0.0
2014-Dec-20 14:31N 39°17' W 076°36'0 0.0
2014-Dec-20 13:32N 39°17' W 076°36'0 0.0
2014-Dec-20 12:31N 39°17' W 076°36'0 0.0
2014-Dec-20 11:32N 39°17' W 076°36'0 0.0
2014-Dec-20 10:32N 39°17' W 076°36'0 0.0
2014-Dec-20 09:26N 39°17' W 076°36'0 0.0
2014-Dec-20 08:32N 39°17' W 076°36'0 0.0
2014-Dec-20 07:31N 39°17' W 076°36'0 0.0
2014-Dec-20 06:31N 39°17' W 076°36'0 0.0
2014-Dec-20 05:32N 39°17' W 076°36'0 0.0
2014-Dec-20 04:25N 39°17' W 076°36'0 0.0
2014-Dec-20 03:31N 39°17' W 076°36'0 0.0
2014-Dec-20 02:31N 39°17' W 076°36'0 0.0
2014-Dec-20 01:31N 39°17' W 076°36'0 0.0
2014-Dec-20 00:31N 39°17' W 076°36'0 0.0
2014-Dec-19 23:31N 39°17' W 076°36'0 0.0
2014-Dec-19 22:31N 39°17' W 076°36'0 0.0
2014-Dec-19 21:25N 39°17' W 076°36'0 0.0
2014-Dec-19 20:31N 39°17' W 076°36'0 0.0
2014-Dec-19 19:32N 39°17' W 076°36'0 0.0
2014-Dec-19 18:31N 39°17' W 076°36'0 0.0
2014-Dec-19 17:31N 39°17' W 076°36'0 0.0
2014-Dec-19 16:31N 39°17' W 076°36'0 0.0
2014-Dec-19 15:31N 39°17' W 076°36'0 0.0
2014-Dec-19 14:31N 39°17' W 076°36'0 0.0
2014-Dec-19 13:31N 39°17' W 076°36'0 0.0
2014-Dec-19 12:32N 39°17' W 076°36'0 0.0
2014-Dec-19 11:31N 39°17' W 076°36'0 0.0
2014-Dec-19 10:32N 39°17' W 076°36'0 0.0
2014-Dec-19 09:31N 39°17' W 076°36'0 0.0
2014-Dec-19 08:32N 39°17' W 076°36'0 0.0
2014-Dec-19 07:32N 39°17' W 076°36'0 0.0
2014-Dec-19 06:32N 39°17' W 076°36'0 0.0
2014-Dec-19 05:32N 39°17' W 076°36'0 0.0
2014-Dec-19 04:32N 39°17' W 076°36'0 0.0
2014-Dec-19 03:32N 39°17' W 076°36'0 0.0
2014-Dec-19 02:32N 39°17' W 076°36'0 0.0
2014-Dec-19 01:32N 39°17' W 076°36'0 0.0
2014-Dec-19 00:31N 39°17' W 076°36'0 0.0
2014-Dec-18 23:31N 39°17' W 076°36'0 0.0
2014-Dec-18 22:32N 39°17' W 076°36'0 0.0
2014-Dec-18 21:31N 39°17' W 076°36'0 0.0
2014-Dec-18 20:31N 39°17' W 076°36'0 0.1
2014-Dec-18 19:33N 39°17' W 076°36'2 2.1
2014-Dec-18 18:33N 39°15' W 076°34'7 7.1
2014-Dec-18 17:33N 39°11' W 076°26'1111.1
2014-Dec-18 16:33N 39°00' W 076°23'5 4.6
2014-Dec-18 15:33N 38°56' W 076°24'1 0.9
2014-Dec-18 14:32N 38°56' W 076°25'0 0.1
2014-Dec-18 13:27N 38°56' W 076°25'0 0.0
2014-Dec-18 12:33N 38°56' W 076°25'0 0.0
2014-Dec-18 11:33N 38°56' W 076°25'0 0.0
2014-Dec-18 10:33N 38°56' W 076°25'0 0.1
2014-Dec-18 09:24N 38°56' W 076°24'0 0.0
2014-Dec-18 08:30N 38°56' W 076°24'0 0.0
2014-Dec-18 07:33N 38°56' W 076°24'0 0.0
2014-Dec-18 06:33N 38°56' W 076°24'0 0.0
2014-Dec-18 05:33N 38°56' W 076°24'0 0.1
2014-Dec-18 04:21N 38°56' W 076°25'0 0.1
2014-Dec-18 03:33N 38°56' W 076°25'0 0.0
2014-Dec-18 02:30N 38°56' W 076°25'0 0.0
2014-Dec-18 01:33N 38°56' W 076°25'0 0.0
2014-Dec-18 00:33N 38°56' W 076°25'0 0.0
2014-Dec-17 23:33N 38°56' W 076°25'0 0.0
2014-Dec-17 22:33N 38°56' W 076°25'0 0.1
2014-Dec-17 21:21N 38°56' W 076°24'0 0.1
2014-Dec-17 20:33N 38°57' W 076°24'0 0.0
2014-Dec-17 19:33N 38°57' W 076°24'0 0.0
2014-Dec-17 18:33N 38°57' W 076°24'0 0.0
2014-Dec-17 17:33N 38°57' W 076°24'0 0.0
2014-Dec-17 16:33N 38°57' W 076°24'0 0.1
2014-Dec-17 15:27N 38°56' W 076°25'0 0.1
2014-Dec-17 14:33N 38°56' W 076°25'0 0.0
2014-Dec-17 13:24N 38°56' W 076°25'0 0.0
2014-Dec-17 12:33N 38°56' W 076°25'0 0.0
2014-Dec-17 11:33N 38°56' W 076°25'0 0.0
2014-Dec-17 10:24N 38°56' W 076°25'0 0.0
2014-Dec-17 09:33N 38°56' W 076°25'0 0.1
2014-Dec-17 08:30N 38°56' W 076°24'0 0.1
2014-Dec-17 07:33N 38°56' W 076°24'0 0.1
2014-Dec-17 06:33N 38°57' W 076°24'0 0.0
2014-Dec-17 05:33N 38°57' W 076°24'0 0.1
2014-Dec-17 04:33N 38°56' W 076°24'0 0.1
2014-Dec-17 03:33N 38°56' W 076°25'0 0.0
2014-Dec-17 02:33N 38°56' W 076°25'0 0.0
2014-Dec-17 01:33N 38°56' W 076°25'0 0.0
2014-Dec-17 00:33N 38°56' W 076°25'0 0.0
2014-Dec-16 23:33N 38°56' W 076°25'0 0.1
2014-Dec-16 21:33N 38°57' W 076°25'0 0.1
2014-Dec-16 20:33N 38°57' W 076°25'0 0.0
2014-Dec-16 19:18N 38°57' W 076°25'0 0.0
2014-Dec-16 18:33N 38°57' W 076°25'0 0.0
2014-Dec-16 17:33N 38°57' W 076°25'0 0.0
2014-Dec-16 16:30N 38°57' W 076°25'0 0.0
2014-Dec-16 15:33N 38°57' W 076°25'0 0.0
2014-Dec-16 14:24N 38°57' W 076°25'0 0.1
2014-Dec-16 12:33N 38°56' W 076°25'0 0.0
2014-Dec-16 11:33N 38°56' W 076°25'0 0.0
2014-Dec-16 10:33N 38°56' W 076°25'0 0.0
2014-Dec-16 09:27N 38°56' W 076°25'0 0.1
2014-Dec-16 08:33N 38°56' W 076°25'0 0.1
2014-Dec-16 07:33N 38°57' W 076°25'0 0.0
2014-Dec-16 06:33N 38°57' W 076°25'0 0.0
2014-Dec-16 05:33N 38°57' W 076°24'0 0.0
2014-Dec-16 04:06N 38°57' W 076°25'0 0.0
2014-Dec-16 03:27N 38°57' W 076°25'0 0.1
2014-Dec-16 01:09N 38°56' W 076°25'0 0.0
2014-Dec-16 00:16N 38°56' W 076°25'0 0.0
2014-Dec-15 23:33N 38°56' W 076°25'0 0.0
2014-Dec-15 22:27N 38°56' W 076°25'0 0.0
2014-Dec-15 21:21N 38°56' W 076°25'0 0.1
2014-Dec-15 20:30N 38°57' W 076°25'0 0.1
2014-Dec-15 19:27N 38°57' W 076°25'0 0.0
2014-Dec-15 18:33N 38°57' W 076°25'0 0.0
2014-Dec-15 17:33N 38°57' W 076°25'0 0.0
2014-Dec-15 16:33N 38°57' W 076°25'0 0.0
2014-Dec-15 15:33N 38°57' W 076°25'0 0.0
2014-Dec-15 14:30N 38°57' W 076°25'0 0.2
2014-Dec-15 13:33N 38°56' W 076°25'0 0.0
2014-Dec-15 12:33N 38°56' W 076°25'0 0.0
2014-Dec-15 11:33N 38°56' W 076°25'0 0.0
2014-Dec-15 10:33N 38°56' W 076°25'0 0.0
2014-Dec-15 09:33N 38°56' W 076°25'0 0.0
2014-Dec-15 08:33N 38°56' W 076°25'0 0.1
2014-Dec-15 07:33N 38°56' W 076°24'0 0.1
2014-Dec-15 06:33N 38°57' W 076°25'0 0.0
2014-Dec-15 05:33N 38°57' W 076°25'0 0.0
2014-Dec-15 04:33N 38°57' W 076°25'0 0.0
2014-Dec-15 03:33N 38°57' W 076°25'0 0.1
2014-Dec-15 01:30N 38°56' W 076°25'0 0.0
2014-Dec-15 00:33N 38°56' W 076°25'0 0.0
2014-Dec-14 23:30N 38°56' W 076°25'0 0.0
2014-Dec-14 22:33N 38°56' W 076°25'0 0.0
2014-Dec-14 21:30N 38°56' W 076°25'0 0.0
2014-Dec-14 20:33N 38°56' W 076°25'0 0.2
2014-Dec-14 19:33N 38°57' W 076°25'0 0.0
2014-Dec-14 18:33N 38°57' W 076°25'0 0.0
2014-Dec-14 17:33N 38°57' W 076°25'0 0.0
2014-Dec-14 16:33N 38°57' W 076°25'0 0.0
2014-Dec-14 15:33N 38°57' W 076°25'0 0.0
2014-Dec-14 14:33N 38°57' W 076°25'0 0.1
2014-Dec-14 13:33N 38°56' W 076°25'0 0.1
2014-Dec-14 12:33N 38°56' W 076°25'0 0.0
2014-Dec-14 11:33N 38°56' W 076°25'0 0.0
2014-Dec-14 10:33N 38°56' W 076°25'0 0.0
2014-Dec-14 09:33N 38°56' W 076°25'0 0.0
2014-Dec-14 08:24N 38°56' W 076°25'0 0.0
2014-Dec-14 07:33N 38°56' W 076°25'0 0.0
2014-Dec-14 06:27N 38°56' W 076°25'0 0.1
2014-Dec-14 05:33N 38°56' W 076°24'0 0.1
2014-Dec-14 04:33N 38°57' W 076°24'0 0.0
2014-Dec-14 03:33N 38°57' W 076°24'0 0.0
2014-Dec-14 02:33N 38°57' W 076°24'0 0.1
2014-Dec-14 01:33N 38°56' W 076°24'0 0.1
2014-Dec-14 00:33N 38°56' W 076°25'0 0.0
2014-Dec-13 23:33N 38°56' W 076°25'0 0.0
2014-Dec-13 22:24N 38°56' W 076°25'0 0.0
2014-Dec-13 21:33N 38°56' W 076°25'0 0.0
2014-Dec-13 20:33N 38°56' W 076°25'0 0.0
2014-Dec-13 19:24N 38°56' W 076°25'0 0.1
2014-Dec-13 18:21N 38°56' W 076°24'0 0.1
2014-Dec-13 17:33N 38°57' W 076°24'0 0.0
2014-Dec-13 16:33N 38°57' W 076°24'0 0.0
2014-Dec-13 15:30N 38°57' W 076°24'0 0.0
2014-Dec-13 14:33N 38°57' W 076°25'0 0.2
2014-Dec-13 13:30N 38°56' W 076°25'0 0.0
2014-Dec-13 12:33N 38°56' W 076°25'0 0.0
2014-Dec-13 11:33N 38°56' W 076°25'0 0.0
2014-Dec-13 10:33N 38°56' W 076°25'0 0.0
2014-Dec-13 09:33N 38°56' W 076°25'0 0.0
2014-Dec-13 08:33N 38°56' W 076°25'0 0.0
2014-Dec-13 07:30N 38°56' W 076°25'0 0.0
2014-Dec-13 06:33N 38°56' W 076°25'0 0.0
2014-Dec-13 05:33N 38°56' W 076°25'0 0.1
2014-Dec-13 04:33N 38°56' W 076°24'0 0.1
2014-Dec-13 03:33N 38°57' W 076°24'0 0.0
2014-Dec-13 02:33N 38°57' W 076°24'0 0.0
2014-Dec-13 01:33N 38°57' W 076°24'0 0.0
2014-Dec-13 00:33N 38°57' W 076°24'0 0.1
2014-Dec-12 23:33N 38°56' W 076°24'0 0.0
2014-Dec-12 22:30N 38°56' W 076°25'0 0.0
2014-Dec-12 21:30N 38°56' W 076°25'0 0.0
2014-Dec-12 20:21N 38°56' W 076°25'0 0.0
2014-Dec-12 19:27N 38°56' W 076°25'0 0.0
2014-Dec-12 18:33N 38°56' W 076°25'0 0.0
2014-Dec-12 17:09N 38°56' W 076°25'0 0.0
2014-Dec-12 16:30N 38°56' W 076°24'0 0.1
2014-Dec-12 15:33N 38°56' W 076°24'0 0.0
2014-Dec-12 14:33N 38°56' W 076°24'0 0.0
2014-Dec-12 13:33N 38°56' W 076°24'0 0.1
2014-Dec-12 12:33N 38°56' W 076°24'0 0.1
2014-Dec-12 11:33N 38°56' W 076°25'0 0.0
2014-Dec-12 10:33N 38°56' W 076°25'0 0.0
2014-Dec-12 09:33N 38°56' W 076°25'0 0.0
2014-Dec-12 08:21N 38°56' W 076°25'0 0.0
2014-Dec-12 07:33N 38°56' W 076°25'0 0.0
2014-Dec-12 06:33N 38°56' W 076°25'0 0.0
2014-Dec-12 05:33N 38°56' W 076°25'0 0.0
2014-Dec-12 04:33N 38°56' W 076°25'0 0.2
2014-Dec-12 03:33N 38°57' W 076°25'0 0.1
2014-Dec-12 02:33N 38°57' W 076°25'0 0.2
2014-Dec-12 01:33N 38°56' W 076°25'6 6.5
2014-Dec-12 00:33N 38°50' W 076°24'5311.7
2014-Dec-11 20:04N 37°58' W 076°12'  

Dump ship's entire track history